sensor_id;sensor_type;location;lat;lon;timestamp;pressure;altitude;pressure_sealevel;temperature;humidity
77110;BME280;66062;52.464;16.922;2024-01-16T00:00:31;98909.63;;;-1.81;81.25
77110;BME280;66062;52.464;16.922;2024-01-16T00:02:57;98916.50;;;-1.92;81.51
77110;BME280;66062;52.464;16.922;2024-01-16T00:05:22;98917.03;;;-1.87;81.81
77110;BME280;66062;52.464;16.922;2024-01-16T00:07:48;98924.78;;;-1.86;81.79
77110;BME280;66062;52.464;16.922;2024-01-16T00:10:14;98934.72;;;-1.91;82.38
77110;BME280;66062;52.464;16.922;2024-01-16T00:12:40;98932.09;;;-1.91;82.78
77110;BME280;66062;52.464;16.922;2024-01-16T00:15:06;98932.00;;;-1.89;83.19
77110;BME280;66062;52.464;16.922;2024-01-16T00:17:31;98936.50;;;-1.91;84.09
77110;BME280;66062;52.464;16.922;2024-01-16T00:19:57;98943.31;;;-1.89;84.01
77110;BME280;66062;52.464;16.922;2024-01-16T00:22:29;98941.09;;;-1.95;83.80
77110;BME280;66062;52.464;16.922;2024-01-16T00:24:54;98945.56;;;-1.97;84.13
77110;BME280;66062;52.464;16.922;2024-01-16T00:27:20;98947.03;;;-2.05;84.59
77110;BME280;66062;52.464;16.922;2024-01-16T00:29:45;98958.00;;;-2.00;84.66
77110;BME280;66062;52.464;16.922;2024-01-16T00:32:11;98959.25;;;-2.06;84.67
77110;BME280;66062;52.464;16.922;2024-01-16T00:34:41;98964.81;;;-1.98;84.55
77110;BME280;66062;52.464;16.922;2024-01-16T00:37:07;98964.09;;;-1.87;84.04
77110;BME280;66062;52.464;16.922;2024-01-16T00:39:33;98968.38;;;-1.86;83.57
77110;BME280;66062;52.464;16.922;2024-01-16T00:41:58;98971.84;;;-1.86;83.16
77110;BME280;66062;52.464;16.922;2024-01-16T00:44:24;98977.06;;;-1.86;82.23
77110;BME280;66062;52.464;16.922;2024-01-16T00:46:49;98981.50;;;-1.74;81.54
77110;BME280;66062;52.464;16.922;2024-01-16T00:49:15;98984.81;;;-1.72;81.56
77110;BME280;66062;52.464;16.922;2024-01-16T00:51:40;98987.13;;;-1.80;81.08
77110;BME280;66062;52.464;16.922;2024-01-16T00:54:06;99003.13;;;-1.72;81.30
77110;BME280;66062;52.464;16.922;2024-01-16T00:56:35;99007.41;;;-1.70;80.42
77110;BME280;66062;52.464;16.922;2024-01-16T00:59:01;99005.84;;;-1.60;81.24
77110;BME280;66062;52.464;16.922;2024-01-16T01:01:27;99001.97;;;-1.67;81.42
77110;BME280;66062;52.464;16.922;2024-01-16T01:03:52;99022.78;;;-1.66;81.49
77110;BME280;66062;52.464;16.922;2024-01-16T01:06:17;99025.31;;;-1.64;81.51
77110;BME280;66062;52.464;16.922;2024-01-16T01:08:46;99029.31;;;-1.59;81.48
77110;BME280;66062;52.464;16.922;2024-01-16T01:11:11;99025.00;;;-1.60;80.97
77110;BME280;66062;52.464;16.922;2024-01-16T01:13:37;99038.72;;;-1.56;80.96
77110;BME280;66062;52.464;16.922;2024-01-16T01:16:03;99034.44;;;-1.45;80.50
77110;BME280;66062;52.464;16.922;2024-01-16T01:18:28;99039.34;;;-1.40;80.45
77110;BME280;66062;52.464;16.922;2024-01-16T01:20:54;99034.66;;;-1.48;80.24
77110;BME280;66062;52.464;16.922;2024-01-16T01:23:19;99038.00;;;-1.33;80.60
77110;BME280;66062;52.464;16.922;2024-01-16T01:25:44;99039.34;;;-1.40;80.28
77110;BME280;66062;52.464;16.922;2024-01-16T01:28:10;99051.50;;;-1.39;80.47
77110;BME280;66062;52.464;16.922;2024-01-16T01:30:37;99050.34;;;-1.35;80.15
77110;BME280;66062;52.464;16.922;2024-01-16T01:33:02;99054.00;;;-1.25;80.83
77110;BME280;66062;52.464;16.922;2024-01-16T01:35:27;99058.63;;;-1.28;80.69
77110;BME280;66062;52.464;16.922;2024-01-16T01:37:53;99059.13;;;-1.36;80.40
77110;BME280;66062;52.464;16.922;2024-01-16T01:40:18;99064.19;;;-1.33;79.71
77110;BME280;66062;52.464;16.922;2024-01-16T01:42:44;99075.97;;;-1.40;79.91
77110;BME280;66062;52.464;16.922;2024-01-16T01:45:10;99083.84;;;-1.40;79.80
77110;BME280;66062;52.464;16.922;2024-01-16T01:47:39;99081.13;;;-1.39;80.14
77110;BME280;66062;52.464;16.922;2024-01-16T01:50:08;99087.50;;;-1.30;80.34
77110;BME280;66062;52.464;16.922;2024-01-16T01:52:34;99088.13;;;-1.26;79.58
77110;BME280;66062;52.464;16.922;2024-01-16T01:55:01;99095.75;;;-1.36;79.00
77110;BME280;66062;52.464;16.922;2024-01-16T01:57:27;99093.38;;;-1.39;79.29
77110;BME280;66062;52.464;16.922;2024-01-16T01:59:53;99094.81;;;-1.35;79.25
77110;BME280;66062;52.464;16.922;2024-01-16T02:02:18;99102.47;;;-1.32;78.93
77110;BME280;66062;52.464;16.922;2024-01-16T02:04:45;99103.47;;;-1.47;79.24
77110;BME280;66062;52.464;16.922;2024-01-16T02:07:12;99099.31;;;-1.50;79.45
77110;BME280;66062;52.464;16.922;2024-01-16T02:09:37;99102.53;;;-1.46;79.67
77110;BME280;66062;52.464;16.922;2024-01-16T02:12:04;99101.84;;;-1.48;79.63
77110;BME280;66062;52.464;16.922;2024-01-16T02:14:29;99107.38;;;-1.40;79.67
77110;BME280;66062;52.464;16.922;2024-01-16T02:16:55;99106.03;;;-1.33;79.32
77110;BME280;66062;52.464;16.922;2024-01-16T02:19:20;99102.91;;;-1.38;79.32
77110;BME280;66062;52.464;16.922;2024-01-16T02:21:50;99111.69;;;-1.39;79.58
77110;BME280;66062;52.464;16.922;2024-01-16T02:24:19;99110.41;;;-1.46;79.31
77110;BME280;66062;52.464;16.922;2024-01-16T02:26:44;99124.00;;;-1.41;80.02
77110;BME280;66062;52.464;16.922;2024-01-16T02:29:09;99118.78;;;-1.41;80.18
77110;BME280;66062;52.464;16.922;2024-01-16T02:31:35;99114.16;;;-1.50;80.12
77110;BME280;66062;52.464;16.922;2024-01-16T02:34:01;99124.31;;;-1.58;80.42
77110;BME280;66062;52.464;16.922;2024-01-16T02:36:27;99132.09;;;-1.71;80.88
77110;BME280;66062;52.464;16.922;2024-01-16T02:38:53;99137.53;;;-1.74;81.28
77110;BME280;66062;52.464;16.922;2024-01-16T02:41:19;99137.13;;;-1.68;80.99
77110;BME280;66062;52.464;16.922;2024-01-16T02:43:44;99139.63;;;-1.66;81.09
77110;BME280;66062;52.464;16.922;2024-01-16T02:46:10;99138.78;;;-1.67;81.20
77110;BME280;66062;52.464;16.922;2024-01-16T02:48:36;99151.03;;;-1.67;80.70
77110;BME280;66062;52.464;16.922;2024-01-16T02:51:02;99149.91;;;-1.63;79.83
77110;BME280;66062;52.464;16.922;2024-01-16T02:53:29;99153.38;;;-1.63;80.06
77110;BME280;66062;52.464;16.922;2024-01-16T02:55:54;99167.91;;;-1.59;79.48
77110;BME280;66062;52.464;16.922;2024-01-16T02:58:20;99162.88;;;-1.62;79.92
77110;BME280;66062;52.464;16.922;2024-01-16T03:00:46;99169.84;;;-1.48;80.01
77110;BME280;66062;52.464;16.922;2024-01-16T03:03:12;99174.31;;;-1.50;79.94
77110;BME280;66062;52.464;16.922;2024-01-16T03:05:37;99179.75;;;-1.53;80.24
77110;BME280;66062;52.464;16.922;2024-01-16T03:08:03;99180.09;;;-1.45;80.32
77110;BME280;66062;52.464;16.922;2024-01-16T03:10:28;99180.53;;;-1.39;80.08
77110;BME280;66062;52.464;16.922;2024-01-16T03:12:54;99186.25;;;-1.46;79.97
77110;BME280;66062;52.464;16.922;2024-01-16T03:15:19;99193.94;;;-1.43;80.21
77110;BME280;66062;52.464;16.922;2024-01-16T03:17:45;99187.16;;;-1.60;80.77
77110;BME280;66062;52.464;16.922;2024-01-16T03:20:11;99183.38;;;-1.68;80.41
77110;BME280;66062;52.464;16.922;2024-01-16T03:22:37;99182.69;;;-1.72;79.81
77110;BME280;66062;52.464;16.922;2024-01-16T03:25:02;99180.84;;;-1.70;79.44
77110;BME280;66062;52.464;16.922;2024-01-16T03:27:28;99185.44;;;-1.74;79.53
77110;BME280;66062;52.464;16.922;2024-01-16T03:29:53;99191.22;;;-1.83;79.15
77110;BME280;66062;52.464;16.922;2024-01-16T03:32:19;99193.59;;;-1.78;78.27
77110;BME280;66062;52.464;16.922;2024-01-16T03:34:44;99202.53;;;-1.82;78.53
77110;BME280;66062;52.464;16.922;2024-01-16T03:37:10;99201.91;;;-1.86;78.15
77110;BME280;66062;52.464;16.922;2024-01-16T03:39:35;99204.81;;;-1.90;78.19
77110;BME280;66062;52.464;16.922;2024-01-16T03:42:01;99222.16;;;-1.89;77.54
77110;BME280;66062;52.464;16.922;2024-01-16T03:44:26;99216.81;;;-1.88;77.25
77110;BME280;66062;52.464;16.922;2024-01-16T03:46:51;99224.78;;;-1.89;77.29
77110;BME280;66062;52.464;16.922;2024-01-16T03:49:17;99223.44;;;-1.82;77.22
77110;BME280;66062;52.464;16.922;2024-01-16T03:51:42;99229.34;;;-1.79;77.68
77110;BME280;66062;52.464;16.922;2024-01-16T03:54:14;99229.63;;;-1.83;78.12
77110;BME280;66062;52.464;16.922;2024-01-16T03:56:40;99226.19;;;-1.84;78.21
77110;BME280;66062;52.464;16.922;2024-01-16T03:59:05;99224.97;;;-1.92;78.80
77110;BME280;66062;52.464;16.922;2024-01-16T04:01:34;99233.84;;;-1.95;78.97
77110;BME280;66062;52.464;16.922;2024-01-16T04:04:02;99241.78;;;-1.96;79.44
77110;BME280;66062;52.464;16.922;2024-01-16T04:06:28;99244.09;;;-1.92;79.51
77110;BME280;66062;52.464;16.922;2024-01-16T04:08:55;99247.84;;;-1.96;79.80
77110;BME280;66062;52.464;16.922;2024-01-16T04:11:20;99259.22;;;-1.97;80.60
77110;BME280;66062;52.464;16.922;2024-01-16T04:13:45;99259.78;;;-1.92;80.86
77110;BME280;66062;52.464;16.922;2024-01-16T04:16:12;99260.34;;;-2.01;80.58
77110;BME280;66062;52.464;16.922;2024-01-16T04:18:40;99248.88;;;-1.98;80.07
77110;BME280;66062;52.464;16.922;2024-01-16T04:21:06;99251.59;;;-2.00;79.70
77110;BME280;66062;52.464;16.922;2024-01-16T04:23:32;99260.34;;;-2.01;80.06
77110;BME280;66062;52.464;16.922;2024-01-16T04:25:58;99265.03;;;-2.06;80.18
77110;BME280;66062;52.464;16.922;2024-01-16T04:28:23;99258.59;;;-2.14;80.27
77110;BME280;66062;52.464;16.922;2024-01-16T04:30:49;99265.03;;;-2.06;80.86
77110;BME280;66062;52.464;16.922;2024-01-16T04:33:14;99270.25;;;-2.20;80.50
77110;BME280;66062;52.464;16.922;2024-01-16T04:35:40;99269.41;;;-2.21;81.17
77110;BME280;66062;52.464;16.922;2024-01-16T04:38:05;99282.56;;;-2.22;81.44
77110;BME280;66062;52.464;16.922;2024-01-16T04:40:31;99282.19;;;-2.30;81.54
77110;BME280;66062;52.464;16.922;2024-01-16T04:42:56;99292.00;;;-2.34;81.20
77110;BME280;66062;52.464;16.922;2024-01-16T04:45:22;99297.88;;;-2.30;81.88
77110;BME280;66062;52.464;16.922;2024-01-16T04:47:47;99296.00;;;-2.28;81.00
77110;BME280;66062;52.464;16.922;2024-01-16T04:50:12;99292.09;;;-2.35;81.45
77110;BME280;66062;52.464;16.922;2024-01-16T04:52:38;99292.44;;;-2.41;81.48
77110;BME280;66062;52.464;16.922;2024-01-16T04:55:04;99291.31;;;-2.51;82.71
77110;BME280;66062;52.464;16.922;2024-01-16T04:57:29;99293.34;;;-2.56;82.10
77110;BME280;66062;52.464;16.922;2024-01-16T04:59:55;99294.78;;;-2.81;83.48
77110;BME280;66062;52.464;16.922;2024-01-16T05:02:20;99293.44;;;-2.88;83.47
77110;BME280;66062;52.464;16.922;2024-01-16T05:04:46;99298.44;;;-2.99;84.08
77110;BME280;66062;52.464;16.922;2024-01-16T05:07:15;99297.69;;;-3.01;84.38
77110;BME280;66062;52.464;16.922;2024-01-16T05:09:41;99298.53;;;-3.00;83.69
77110;BME280;66062;52.464;16.922;2024-01-16T05:12:06;99309.06;;;-3.02;83.29
77110;BME280;66062;52.464;16.922;2024-01-16T05:14:31;99317.06;;;-3.05;84.00
77110;BME280;66062;52.464;16.922;2024-01-16T05:16:57;99313.19;;;-3.14;84.42
77110;BME280;66062;52.464;16.922;2024-01-16T05:19:22;99318.28;;;-3.26;84.13
77110;BME280;66062;52.464;16.922;2024-01-16T05:21:48;99321.41;;;-3.35;84.96
77110;BME280;66062;52.464;16.922;2024-01-16T05:24:13;99334.50;;;-3.37;84.57
77110;BME280;66062;52.464;16.922;2024-01-16T05:26:39;99326.75;;;-3.38;85.91
77110;BME280;66062;52.464;16.922;2024-01-16T05:29:04;99335.75;;;-3.44;85.70
77110;BME280;66062;52.464;16.922;2024-01-16T05:31:30;99328.38;;;-3.52;86.28
77110;BME280;66062;52.464;16.922;2024-01-16T05:33:55;99333.00;;;-3.57;86.64
77110;BME280;66062;52.464;16.922;2024-01-16T05:36:21;99339.53;;;-3.50;86.99
77110;BME280;66062;52.464;16.922;2024-01-16T05:38:46;99341.56;;;-3.55;86.48
77110;BME280;66062;52.464;16.922;2024-01-16T05:41:13;99337.50;;;-3.60;86.40
77110;BME280;66062;52.464;16.922;2024-01-16T05:43:38;99345.84;;;-3.54;85.86
77110;BME280;66062;52.464;16.922;2024-01-16T05:46:04;99356.28;;;-3.54;85.60
77110;BME280;66062;52.464;16.922;2024-01-16T05:48:30;99355.19;;;-3.50;85.88
77110;BME280;66062;52.464;16.922;2024-01-16T05:50:55;99360.75;;;-3.56;86.09
77110;BME280;66062;52.464;16.922;2024-01-16T05:53:21;99365.38;;;-3.61;85.66
77110;BME280;66062;52.464;16.922;2024-01-16T05:55:46;99359.38;;;-3.63;86.66
77110;BME280;66062;52.464;16.922;2024-01-16T05:58:12;99364.28;;;-3.57;86.51
77110;BME280;66062;52.464;16.922;2024-01-16T06:00:37;99366.72;;;-3.54;86.26
77110;BME280;66062;52.464;16.922;2024-01-16T06:03:04;99375.03;;;-3.63;86.60
77110;BME280;66062;52.464;16.922;2024-01-16T06:05:30;99379.66;;;-3.68;87.43
77110;BME280;66062;52.464;16.922;2024-01-16T06:07:55;99381.84;;;-3.76;88.22
77110;BME280;66062;52.464;16.922;2024-01-16T06:10:21;99384.56;;;-3.79;87.96
77110;BME280;66062;52.464;16.922;2024-01-16T06:12:47;99380.03;;;-3.75;88.06
77110;BME280;66062;52.464;16.922;2024-01-16T06:15:12;99386.28;;;-3.78;88.14
77110;BME280;66062;52.464;16.922;2024-01-16T06:17:38;99385.66;;;-3.83;88.82
77110;BME280;66062;52.464;16.922;2024-01-16T06:20:04;99385.63;;;-3.99;89.41
77110;BME280;66062;52.464;16.922;2024-01-16T06:22:31;99395.38;;;-4.02;89.88
77110;BME280;66062;52.464;16.922;2024-01-16T06:24:57;99394.28;;;-3.98;89.76
77110;BME280;66062;52.464;16.922;2024-01-16T06:27:22;99395.50;;;-4.05;89.42
77110;BME280;66062;52.464;16.922;2024-01-16T06:29:48;99396.53;;;-4.08;89.52
77110;BME280;66062;52.464;16.922;2024-01-16T06:32:14;99401.72;;;-4.08;89.75
77110;BME280;66062;52.464;16.922;2024-01-16T06:34:39;99409.44;;;-4.06;90.42
77110;BME280;66062;52.464;16.922;2024-01-16T06:37:05;99417.06;;;-4.02;90.06
77110;BME280;66062;52.464;16.922;2024-01-16T06:39:30;99423.25;;;-4.04;90.59
77110;BME280;66062;52.464;16.922;2024-01-16T06:41:56;99423.31;;;-4.06;89.77
77110;BME280;66062;52.464;16.922;2024-01-16T06:44:21;99428.47;;;-4.04;90.21
77110;BME280;66062;52.464;16.922;2024-01-16T06:46:47;99432.75;;;-4.03;90.08
77110;BME280;66062;52.464;16.922;2024-01-16T06:49:12;99427.25;;;-4.14;90.25
77110;BME280;66062;52.464;16.922;2024-01-16T06:51:38;99433.34;;;-4.15;89.74
77110;BME280;66062;52.464;16.922;2024-01-16T06:54:03;99438.41;;;-4.29;90.65
77110;BME280;66062;52.464;16.922;2024-01-16T06:56:29;99444.19;;;-4.23;90.11
77110;BME280;66062;52.464;16.922;2024-01-16T06:58:55;99454.97;;;-4.13;89.99
77110;BME280;66062;52.464;16.922;2024-01-16T07:01:20;99460.13;;;-4.12;89.49
77110;BME280;66062;52.464;16.922;2024-01-16T07:03:46;99471.22;;;-4.08;89.24
77110;BME280;66062;52.464;16.922;2024-01-16T07:06:11;99470.91;;;-4.02;89.08
77110;BME280;66062;52.464;16.922;2024-01-16T07:08:37;99481.09;;;-3.98;89.23
77110;BME280;66062;52.464;16.922;2024-01-16T07:11:02;99481.63;;;-3.91;88.91
77110;BME280;66062;52.464;16.922;2024-01-16T07:13:32;99505.25;;;-3.77;88.28
77110;BME280;66062;52.464;16.922;2024-01-16T07:15:58;99503.56;;;-3.45;87.21
77110;BME280;66062;52.464;16.922;2024-01-16T07:18:23;99513.75;;;-3.23;86.73
77110;BME280;66062;52.464;16.922;2024-01-16T07:20:49;99512.19;;;-3.10;85.48
77110;BME280;66062;52.464;16.922;2024-01-16T07:23:14;99517.06;;;-3.04;84.68
77110;BME280;66062;52.464;16.922;2024-01-16T07:25:40;99517.19;;;-2.90;84.31
77110;BME280;66062;52.464;16.922;2024-01-16T07:28:06;99521.06;;;-2.81;83.77
77110;BME280;66062;52.464;16.922;2024-01-16T07:30:31;99519.69;;;-2.73;84.06
77110;BME280;66062;52.464;16.922;2024-01-16T07:32:56;99525.00;;;-2.74;83.25
77110;BME280;66062;52.464;16.922;2024-01-16T07:35:22;99531.50;;;-2.66;82.42
77110;BME280;66062;52.464;16.922;2024-01-16T07:37:47;99533.88;;;-2.61;82.16
77110;BME280;66062;52.464;16.922;2024-01-16T07:40:13;99536.28;;;-2.58;82.27
77110;BME280;66062;52.464;16.922;2024-01-16T07:42:39;99535.13;;;-2.52;81.38
77110;BME280;66062;52.464;16.922;2024-01-16T07:45:04;99544.13;;;-2.42;81.73
77110;BME280;66062;52.464;16.922;2024-01-16T07:47:31;99548.34;;;-2.40;81.31
77110;BME280;66062;52.464;16.922;2024-01-16T07:49:57;99552.63;;;-2.23;80.33
77110;BME280;66062;52.464;16.922;2024-01-16T07:52:23;99554.25;;;-2.21;79.69
77110;BME280;66062;52.464;16.922;2024-01-16T07:54:48;99550.41;;;-1.99;79.71
77110;BME280;66062;52.464;16.922;2024-01-16T07:57:14;99556.63;;;-1.86;78.60
77110;BME280;66062;52.464;16.922;2024-01-16T07:59:39;99558.44;;;-1.73;78.74
77110;BME280;66062;52.464;16.922;2024-01-16T08:02:06;99564.38;;;-1.85;78.05
77110;BME280;66062;52.464;16.922;2024-01-16T08:04:31;99572.81;;;-1.80;78.38
77110;BME280;66062;52.464;16.922;2024-01-16T08:06:57;99580.25;;;-1.58;77.71
77110;BME280;66062;52.464;16.922;2024-01-16T08:09:22;99584.09;;;-1.49;77.08
77110;BME280;66062;52.464;16.922;2024-01-16T08:11:48;99580.66;;;-1.50;77.04
77110;BME280;66062;52.464;16.922;2024-01-16T08:14:13;99580.72;;;-1.51;76.84
77110;BME280;66062;52.464;16.922;2024-01-16T08:16:39;99579.03;;;-1.52;77.20
77110;BME280;66062;52.464;16.922;2024-01-16T08:19:04;99569.75;;;-1.28;77.03
77110;BME280;66062;52.464;16.922;2024-01-16T08:21:29;99568.09;;;-1.15;76.17
77110;BME280;66062;52.464;16.922;2024-01-16T08:23:55;99577.06;;;-0.91;74.64
77110;BME280;66062;52.464;16.922;2024-01-16T08:26:20;99590.63;;;-0.70;74.42
77110;BME280;66062;52.464;16.922;2024-01-16T08:28:46;99583.22;;;-0.49;72.58
77110;BME280;66062;52.464;16.922;2024-01-16T08:31:11;99591.09;;;-0.49;72.06
77110;BME280;66062;52.464;16.922;2024-01-16T08:33:37;99590.25;;;-0.50;71.53
77110;BME280;66062;52.464;16.922;2024-01-16T08:36:03;99596.88;;;-0.44;71.26
77110;BME280;66062;52.464;16.922;2024-01-16T08:38:29;99613.00;;;-0.36;71.24
77110;BME280;66062;52.464;16.922;2024-01-16T08:40:55;99615.41;;;-0.33;70.37
77110;BME280;66062;52.464;16.922;2024-01-16T08:43:20;99614.16;;;-0.13;70.46
77110;BME280;66062;52.464;16.922;2024-01-16T08:45:45;99602.81;;;0.79;66.80
77110;BME280;66062;52.464;16.922;2024-01-16T08:48:13;99609.91;;;2.85;59.75
77110;BME280;66062;52.464;16.922;2024-01-16T08:50:40;99602.28;;;5.30;52.17
77110;BME280;66062;52.464;16.922;2024-01-16T08:53:06;99595.41;;;6.96;46.11
77110;BME280;66062;52.464;16.922;2024-01-16T08:55:32;99606.34;;;8.48;42.31
77110;BME280;66062;52.464;16.922;2024-01-16T08:57:57;99609.50;;;6.67;44.24
77110;BME280;66062;52.464;16.922;2024-01-16T09:00:22;99613.94;;;4.34;49.81
77110;BME280;66062;52.464;16.922;2024-01-16T09:02:48;99625.25;;;2.56;53.42
77110;BME280;66062;52.464;16.922;2024-01-16T09:05:14;99628.69;;;1.11;58.08
77110;BME280;66062;52.464;16.922;2024-01-16T09:07:40;99617.97;;;1.26;59.63
77110;BME280;66062;52.464;16.922;2024-01-16T09:10:06;99621.38;;;1.78;58.22
77110;BME280;66062;52.464;16.922;2024-01-16T09:12:32;99610.09;;;4.06;52.53
77110;BME280;66062;52.464;16.922;2024-01-16T09:14:58;99609.63;;;6.56;45.68
77110;BME280;66062;52.464;16.922;2024-01-16T09:17:24;99617.56;;;6.18;43.25
77110;BME280;66062;52.464;16.922;2024-01-16T09:19:50;99616.31;;;5.00;45.86
77110;BME280;66062;52.464;16.922;2024-01-16T09:22:17;99620.69;;;5.32;46.07
77110;BME280;66062;52.464;16.922;2024-01-16T09:24:43;99613.75;;;5.71;45.06
77110;BME280;66062;52.464;16.922;2024-01-16T09:27:09;99620.34;;;5.04;45.83
77110;BME280;66062;52.464;16.922;2024-01-16T09:29:35;99628.16;;;4.85;46.22
77110;BME280;66062;52.464;16.922;2024-01-16T09:32:01;99634.44;;;3.98;48.45
77110;BME280;66062;52.464;16.922;2024-01-16T09:34:26;99626.75;;;5.23;45.62
77110;BME280;66062;52.464;16.922;2024-01-16T09:36:52;99629.72;;;5.59;44.81
77110;BME280;66062;52.464;16.922;2024-01-16T09:39:17;99630.00;;;6.46;42.65
77110;BME280;66062;52.464;16.922;2024-01-16T09:41:44;99628.63;;;6.61;42.55
77110;BME280;66062;52.464;16.922;2024-01-16T09:44:09;99636.56;;;5.92;43.81
77110;BME280;66062;52.464;16.922;2024-01-16T09:46:37;99633.31;;;4.87;46.25
77110;BME280;66062;52.464;16.922;2024-01-16T09:49:03;99641.41;;;3.99;47.84
77110;BME280;66062;52.464;16.922;2024-01-16T09:51:29;99652.38;;;3.15;49.79
77110;BME280;66062;52.464;16.922;2024-01-16T09:53:55;99662.59;;;2.74;51.24
77110;BME280;66062;52.464;16.922;2024-01-16T09:56:22;99669.72;;;2.24;52.86
77110;BME280;66062;52.464;16.922;2024-01-16T09:58:54;99663.78;;;1.60;54.46
77110;BME280;66062;52.464;16.922;2024-01-16T10:01:23;99666.63;;;1.57;56.37
77110;BME280;66062;52.464;16.922;2024-01-16T10:03:48;99671.22;;;1.03;57.12
77110;BME280;66062;52.464;16.922;2024-01-16T10:06:15;99685.22;;;0.64;58.65
77110;BME280;66062;52.464;16.922;2024-01-16T10:08:42;99680.97;;;0.89;58.72
77110;BME280;66062;52.464;16.922;2024-01-16T10:11:08;99691.34;;;0.77;59.21
77110;BME280;66062;52.464;16.922;2024-01-16T10:13:34;99689.56;;;0.78;58.01
77110;BME280;66062;52.464;16.922;2024-01-16T10:15:59;99685.31;;;1.27;58.07
77110;BME280;66062;52.464;16.922;2024-01-16T10:18:29;99682.50;;;2.18;56.59
77110;BME280;66062;52.464;16.922;2024-01-16T10:21:00;99686.00;;;2.42;54.81
77110;BME280;66062;52.464;16.922;2024-01-16T10:23:27;99686.03;;;2.29;55.20
77110;BME280;66062;52.464;16.922;2024-01-16T10:26:08;99687.63;;;2.19;55.35
77110;BME280;66062;52.464;16.922;2024-01-16T10:28:38;99682.25;;;1.97;56.54
77110;BME280;66062;52.464;16.922;2024-01-16T10:31:06;99681.34;;;1.35;57.38
77110;BME280;66062;52.464;16.922;2024-01-16T10:33:32;99676.78;;;0.99;59.32
77110;BME280;66062;52.464;16.922;2024-01-16T10:36:26;99679.47;;;0.45;61.56
77110;BME280;66062;52.464;16.922;2024-01-16T10:39:02;99683.13;;;0.69;61.21
77110;BME280;66062;52.464;16.922;2024-01-16T10:41:28;99692.34;;;0.62;61.79
77110;BME280;66062;52.464;16.922;2024-01-16T10:44:07;99694.72;;;0.79;61.59
77110;BME280;66062;52.464;16.922;2024-01-16T10:46:32;99698.06;;;0.81;62.18
77110;BME280;66062;52.464;16.922;2024-01-16T10:49:04;99677.84;;;0.96;61.06
77110;BME280;66062;52.464;16.922;2024-01-16T10:51:31;99674.72;;;0.77;60.99
77110;BME280;66062;52.464;16.922;2024-01-16T10:54:02;99673.13;;;1.14;59.98
77110;BME280;66062;52.464;16.922;2024-01-16T10:56:31;99681.97;;;1.38;60.06
77110;BME280;66062;52.464;16.922;2024-01-16T11:01:44;99678.94;;;0.40;60.42
77110;BME280;66062;52.464;16.922;2024-01-16T11:04:13;99681.75;;;0.64;60.77
77110;BME280;66062;52.464;16.922;2024-01-16T11:06:40;99677.41;;;0.50;60.31
77110;BME280;66062;52.464;16.922;2024-01-16T11:09:08;99671.53;;;0.86;58.42
77110;BME280;66062;52.464;16.922;2024-01-16T11:11:34;99681.28;;;0.97;58.87
77110;BME280;66062;52.464;16.922;2024-01-16T11:14:03;99690.56;;;0.63;58.82
77110;BME280;66062;52.464;16.922;2024-01-16T11:16:31;99687.81;;;1.04;58.34
77110;BME280;66062;52.464;16.922;2024-01-16T11:18:57;99687.84;;;1.16;57.32
77110;BME280;66062;52.464;16.922;2024-01-16T11:21:23;99686.34;;;1.00;56.85
77110;BME280;66062;52.464;16.922;2024-01-16T11:23:49;99694.38;;;1.23;55.73
77110;BME280;66062;52.464;16.922;2024-01-16T11:28:51;99700.66;;;1.08;56.95
77110;BME280;66062;52.464;16.922;2024-01-16T11:31:33;99703.06;;;2.00;55.23
77110;BME280;66062;52.464;16.922;2024-01-16T11:33:59;99693.72;;;4.59;48.05
77110;BME280;66062;52.464;16.922;2024-01-16T11:36:57;99689.50;;;4.68;46.55
77110;BME280;66062;52.464;16.922;2024-01-16T11:39:24;99700.16;;;3.57;48.05
77110;BME280;66062;52.464;16.922;2024-01-16T11:47:03;99719.38;;;2.05;52.92
77110;BME280;66062;52.464;16.922;2024-01-16T11:49:29;99721.50;;;1.75;54.81
77110;BME280;66062;52.464;16.922;2024-01-16T11:51:58;99721.09;;;1.55;55.04
77110;BME280;66062;52.464;16.922;2024-01-16T11:54:23;99725.09;;;1.36;56.41
77110;BME280;66062;52.464;16.922;2024-01-16T12:02:36;99714.56;;;1.48;55.08
77110;BME280;66062;52.464;16.922;2024-01-16T12:05:03;99715.19;;;1.39;55.90
77110;BME280;66062;52.464;16.922;2024-01-16T12:07:45;99711.06;;;3.06;52.13
77110;BME280;66062;52.464;16.922;2024-01-16T12:10:12;99706.44;;;4.00;48.75
77110;BME280;66062;52.464;16.922;2024-01-16T12:12:38;99707.03;;;3.93;48.24
77110;BME280;66062;52.464;16.922;2024-01-16T12:15:04;99702.84;;;4.01;48.33
77110;BME280;66062;52.464;16.922;2024-01-16T12:17:29;99706.88;;;3.50;48.93
77110;BME280;66062;52.464;16.922;2024-01-16T12:19:55;99713.50;;;2.62;51.10
77110;BME280;66062;52.464;16.922;2024-01-16T12:22:21;99720.28;;;1.67;53.88
77110;BME280;66062;52.464;16.922;2024-01-16T12:24:49;99716.47;;;1.46;55.31
77110;BME280;66062;52.464;16.922;2024-01-16T12:27:15;99712.75;;;1.23;57.26
77110;BME280;66062;52.464;16.922;2024-01-16T12:29:42;99712.25;;;1.44;57.28
77110;BME280;66062;52.464;16.922;2024-01-16T12:32:08;99715.44;;;1.61;56.05
77110;BME280;66062;52.464;16.922;2024-01-16T12:34:35;99712.91;;;1.73;56.31
77110;BME280;66062;52.464;16.922;2024-01-16T12:37:06;99716.13;;;1.63;56.94
77110;BME280;66062;52.464;16.922;2024-01-16T12:39:33;99710.16;;;1.36;57.03
77110;BME280;66062;52.464;16.922;2024-01-16T12:42:01;99717.50;;;1.31;58.09
77110;BME280;66062;52.464;16.922;2024-01-16T12:44:29;99715.78;;;1.17;58.67
77110;BME280;66062;52.464;16.922;2024-01-16T12:46:55;99715.38;;;1.23;59.58
77110;BME280;66062;52.464;16.922;2024-01-16T12:49:22;99715.81;;;1.30;58.54
77110;BME280;66062;52.464;16.922;2024-01-16T12:51:48;99717.09;;;1.37;58.56
77110;BME280;66062;52.464;16.922;2024-01-16T12:54:16;99719.41;;;1.54;57.65
77110;BME280;66062;52.464;16.922;2024-01-16T12:56:42;99711.53;;;1.54;57.41
77110;BME280;66062;52.464;16.922;2024-01-16T12:59:11;99713.63;;;1.62;57.11
77110;BME280;66062;52.464;16.922;2024-01-16T13:01:45;99714.72;;;1.07;58.38
77110;BME280;66062;52.464;16.922;2024-01-16T13:04:12;99719.66;;;0.99;59.57